Time;durP1;ratioP1;P1;durP2;ratioP2;P2;SDS_P1;SDS_P2;PMS_P1;PMS_P2;Temp;Humidity;BMP_temperature;BMP_pressure;BME280_temperature;BME280_humidity;BME280_pressure;Samples;Min_cycle;Max_cycle;Signal;HPM_P1;HPM_P2
2024/01/07 00:00:15;;;;;;;21.02;15.63;;;1.00;99.90;;;;;;4829046;29;20093;-78
2024/01/07 00:03:30;;;;;;;21.13;16.13;;;1.00;99.90;;;;;;4831011;29;20045;-78
2024/01/07 00:06:39;;;;;;;21.27;15.88;;;1.00;99.90;;;;;;4808683;29;20453;-79
2024/01/07 00:16:50;;;;;;;;;;;;;;;;;;;;;
2024/01/07 00:19:41;;;;;;;20.45;16.02;;;1.00;99.90;;;;;;5059219;28;20076;-78
2024/01/07 00:30:11;;;;;;;21.75;16.23;;;1.00;99.90;;;;;;4953678;28;20129;-78
2024/01/07 00:45:25;;;;;;;20.67;14.80;;;0.90;99.90;;;;;;4888546;29;20048;-79
2024/01/07 00:55:25;;;;;;;;;;;;;;;;;;;;;
2024/01/07 01:04:49;;;;;;;18.58;13.00;;;0.90;99.90;;;;;;5004016;28;20054;-80
2024/01/07 01:07:23;;;;;;;18.20;13.45;;;0.90;99.90;;;;;;4982314;28;20069;-79
2024/01/07 01:09:52;;;;;;;18.35;13.95;;;0.90;99.90;;;;;;5016814;28;20037;-79
2024/01/07 01:12:46;;;;;;;18.52;14.02;;;0.90;99.90;;;;;;5044999;28;20140;-80
2024/01/07 01:16:44;;;;;;;;;;;;;;;;;;;;;
2024/01/07 01:20:14;;;;;;;16.75;13.40;;;0.90;99.90;;;;;;5026351;28;20053;-79
2024/01/07 01:23:42;;;;;;;18.50;13.80;;;0.90;99.90;;;;;;5033351;28;20068;-79
2024/01/07 01:26:23;;;;;;;19.77;14.05;;;0.90;99.90;;;;;;5019695;28;20175;-79
2024/01/07 01:30:14;;;;;;;21.27;15.18;;;0.90;99.90;;;;;;5024667;28;20068;-80
2024/01/07 01:39:55;;;;;;;;;;;;;;;;;;;;;
2024/01/07 01:43:56;;;;;;;;;;;;;;;;;;;;;
2024/01/07 01:47:31;;;;;;;22.25;15.77;;;1.00;99.90;;;;;;5038796;28;20505;-79
2024/01/07 01:50:31;;;;;;;21.75;15.45;;;1.00;99.90;;;;;;5014765;28;20132;-80
2024/01/07 01:57:00;;;;;;;20.90;15.90;;;1.00;99.90;;;;;;5011717;28;20044;-80
2024/01/07 02:33:38;;;;;;;18.10;13.40;;;0.90;99.90;;;;;;4965121;28;20449;-80
2024/01/07 02:44:51;;;;;;;;;;;;;;;;;;;;;
2024/01/07 02:47:27;;;;;;;18.63;13.27;;;0.80;99.90;;;;;;5021179;28;20447;-80
2024/01/07 03:17:28;;;;;;;19.13;12.95;;;0.80;99.90;;;;;;6196402;22;1341632;-80
2024/01/07 03:20:06;;;;;;;16.27;13.25;;;0.80;99.90;;;;;;6215772;23;20448;-80
2024/01/07 03:22:44;;;;;;;;;;;;;;;;;;;;;
2024/01/07 03:30:08;;;;;;;;;;;;;;;;;;;;;
2024/01/07 03:33:11;;;;;;;15.02;11.70;;;0.70;99.90;;;;;;6241696;23;20073;-80
2024/01/07 03:40:51;;;;;;;15.43;10.98;;;0.80;99.90;;;;;;6243172;23;20019;-80
2024/01/07 03:44:13;;;;;;;;;;;;;;;;;;;;;
2024/01/07 03:47:35;;;;;;;15.82;10.60;;;0.70;99.90;;;;;;6203340;23;20347;-80
2024/01/07 03:54:33;;;;;;;15.00;11.23;;;0.70;99.90;;;;;;6298250;22;20019;-80
2024/01/07 03:57:01;;;;;;;15.55;12.05;;;0.70;99.90;;;;;;6192148;23;20107;-80
2024/01/07 04:00:40;;;;;;;15.25;11.40;;;0.70;99.90;;;;;;6191797;23;20360;-80
2024/01/07 04:04:13;;;;;;;;;;;;;;;;;;;;;
2024/01/07 04:11:30;;;;;;;;;;;;;;;;;;;;;
2024/01/07 04:14:37;;;;;;;;;;;;;;;;;;;;;
2024/01/07 04:17:19;;;;;;;15.38;9.90;;;0.70;99.90;;;;;;6095278;23;20024;-80
2024/01/07 04:19:57;;;;;;;14.85;10.57;;;0.80;99.90;;;;;;6090473;23;20056;-80
2024/01/07 04:22:35;;;;;;;15.57;9.90;;;0.70;99.90;;;;;;6155829;23;20472;-80
2024/01/07 04:29:27;;;;;;;;;;;;;;;;;;;;;
2024/01/07 04:33:01;;;;;;;;;;;;;;;;;;;;;
2024/01/07 04:39:50;;;;;;;13.85;9.43;;;0.70;99.90;;;;;;6183014;23;20025;-81
2024/01/07 04:42:30;;;;;;;13.43;9.15;;;0.60;99.90;;;;;;6192420;22;20101;-81
2024/01/07 04:52:25;;;;;;;13.15;8.77;;;0.50;99.90;;;;;;6223169;22;20341;-80
2024/01/07 04:55:11;;;;;;;12.13;9.00;;;0.60;99.90;;;;;;6187343;23;20055;-80
2024/01/07 05:02:02;;;;;;;;;;;;;;;;;;;;;
2024/01/07 05:04:59;;;;;;;10.25;7.78;;;0.50;99.90;;;;;;6208130;23;20085;-80
2024/01/07 05:07:37;;;;;;;9.23;6.85;;;0.50;99.90;;;;;;6212399;23;20050;-80
2024/01/07 05:10:32;;;;;;;9.95;6.78;;;0.50;99.90;;;;;;6185827;23;20024;-80
2024/01/07 05:13:10;;;;;;;9.85;6.80;;;0.50;99.90;;;;;;6209746;23;20017;-80
2024/01/07 05:15:36;;;;;;;8.98;6.65;;;0.50;99.90;;;;;;6213199;23;20095;-80
2024/01/07 05:18:08;;;;;;;8.48;6.20;;;0.50;99.90;;;;;;6187322;23;20035;-80
2024/01/07 05:20:36;;;;;;;8.25;6.47;;;0.50;99.90;;;;;;6209632;23;20075;-80
2024/01/07 05:23:04;;;;;;;8.93;6.47;;;0.50;99.90;;;;;;6186127;23;20079;-80
2024/01/07 05:25:29;;;;;;;10.57;6.20;;;0.40;99.90;;;;;;6213206;23;20044;-80
2024/01/07 05:27:55;;;;;;;11.10;6.40;;;0.40;99.90;;;;;;6212606;23;20028;-80
2024/01/07 05:30:22;;;;;;;11.32;6.80;;;0.40;99.90;;;;;;6207450;23;20013;-80
2024/01/07 05:32:47;;;;;;;9.45;6.10;;;0.40;99.90;;;;;;6205000;23;20095;-80
2024/01/07 05:35:13;;;;;;;8.23;6.07;;;0.40;99.90;;;;;;6208060;23;20391;-80
2024/01/07 05:37:38;;;;;;;9.02;6.30;;;0.40;99.90;;;;;;6181798;23;20051;-80
2024/01/07 05:40:06;;;;;;;10.07;5.80;;;0.40;99.90;;;;;;6206076;23;20020;-80
2024/01/07 05:42:31;;;;;;;7.47;5.70;;;0.40;99.90;;;;;;6203762;23;20051;-80
2024/01/07 05:44:57;;;;;;;6.82;5.05;;;0.40;99.90;;;;;;6205056;23;20017;-80
2024/01/07 05:47:22;;;;;;;8.88;5.65;;;0.40;99.90;;;;;;6206513;23;20062;-81
2024/01/07 05:49:48;;;;;;;8.65;5.32;;;0.40;99.90;;;;;;6206274;23;20017;-80
2024/01/07 05:52:14;;;;;;;7.15;5.45;;;0.40;99.90;;;;;;6216279;23;20028;-80
2024/01/07 05:54:40;;;;;;;6.57;4.88;;;0.40;99.90;;;;;;6190022;23;20023;-80
2024/01/07 05:57:05;;;;;;;5.60;4.20;;;0.40;99.90;;;;;;6189945;23;20059;-80
2024/01/07 05:59:31;;;;;;;8.05;4.57;;;0.40;99.90;;;;;;6189076;23;20016;-80
2024/01/07 06:02:00;;;;;;;6.00;4.25;;;0.40;99.90;;;;;;6209654;23;20357;-80
2024/01/07 06:04:25;;;;;;;6.60;4.28;;;0.30;99.90;;;;;;6210616;22;20353;-80
2024/01/07 06:06:51;;;;;;;6.38;4.57;;;0.30;99.90;;;;;;6210204;23;20020;-80
2024/01/07 06:09:17;;;;;;;7.03;4.38;;;0.30;99.90;;;;;;6212824;23;20440;-80
2024/01/07 06:11:42;;;;;;;6.43;4.10;;;0.30;99.90;;;;;;6210371;23;20027;-80
2024/01/07 06:14:08;;;;;;;7.80;4.25;;;0.40;99.90;;;;;;6213073;23;20017;-80
2024/01/07 06:16:33;;;;;;;5.70;4.07;;;0.30;99.90;;;;;;6211293;23;20614;-80
2024/01/07 06:18:59;;;;;;;6.88;3.88;;;0.30;99.90;;;;;;6185041;23;20031;-80
2024/01/07 06:21:25;;;;;;;7.90;4.03;;;0.30;99.90;;;;;;6210219;23;20013;-80
2024/01/07 06:23:50;;;;;;;4.72;3.67;;;0.30;99.90;;;;;;6209964;23;20070;-80
2024/01/07 06:26:16;;;;;;;5.28;3.88;;;0.30;99.90;;;;;;6212819;23;20596;-80
2024/01/07 06:28:41;;;;;;;6.07;3.40;;;0.30;99.90;;;;;;6209396;23;20048;-80
2024/01/07 06:31:07;;;;;;;4.72;3.40;;;0.40;99.90;;;;;;6206044;23;20024;-79
2024/01/07 06:33:33;;;;;;;6.20;3.50;;;0.30;99.90;;;;;;6206303;23;20017;-79
2024/01/07 06:35:59;;;;;;;6.20;3.40;;;0.40;99.90;;;;;;6204501;23;20103;-79
2024/01/07 06:38:25;;;;;;;7.75;3.38;;;0.40;99.90;;;;;;6178810;23;20019;-79
2024/01/07 06:40:51;;;;;;;5.53;3.20;;;0.40;99.90;;;;;;6204401;23;20572;-79
2024/01/07 06:43:16;;;;;;;4.00;3.30;;;0.40;99.90;;;;;;6204586;23;20019;-79
2024/01/07 06:45:43;;;;;;;4.55;2.85;;;0.40;99.90;;;;;;6202488;23;20067;-79
2024/01/07 06:48:09;;;;;;;5.18;2.83;;;0.40;99.90;;;;;;6177607;23;20390;-79
2024/01/07 06:50:34;;;;;;;5.70;3.30;;;0.40;99.90;;;;;;6206068;23;20069;-79
2024/01/07 06:53:00;;;;;;;5.45;2.83;;;0.40;99.90;;;;;;6204302;23;20027;-80
2024/01/07 06:55:26;;;;;;;5.35;2.80;;;0.40;99.90;;;;;;6206182;23;20028;-78
2024/01/07 06:57:51;;;;;;;4.90;3.03;;;0.40;99.90;;;;;;6178956;23;20020;-79
2024/01/07 07:00:17;;;;;;;3.88;3.00;;;0.40;99.90;;;;;;6202153;23;20395;-79
2024/01/07 07:02:43;;;;;;;6.25;2.97;;;0.40;99.90;;;;;;6203309;23;20025;-78
2024/01/07 07:05:09;;;;;;;5.38;2.90;;;0.40;99.90;;;;;;6203309;23;20017;-78
2024/01/07 07:07:34;;;;;;;4.93;3.10;;;0.40;99.90;;;;;;6203712;23;20017;-79
2024/01/07 07:10:00;;;;;;;4.30;2.63;;;0.40;99.90;;;;;;6178765;23;20473;-78
2024/01/07 07:12:26;;;;;;;3.00;2.70;;;0.40;99.90;;;;;;6177861;23;20013;-78
2024/01/07 07:14:51;;;;;;;3.60;2.70;;;0.40;99.90;;;;;;6204554;23;20023;-78
2024/01/07 07:17:17;;;;;;;4.32;3.08;;;0.40;99.90;;;;;;6203455;23;20043;-79
2024/01/07 07:19:42;;;;;;;4.78;3.10;;;0.40;99.90;;;;;;6203782;23;20013;-78
2024/01/07 07:22:08;;;;;;;5.00;2.67;;;0.40;99.90;;;;;;6205781;23;20060;-79
2024/01/07 07:24:34;;;;;;;5.72;2.90;;;0.40;99.90;;;;;;6203745;23;20457;-79
2024/01/07 07:26:59;;;;;;;3.10;2.45;;;0.40;99.90;;;;;;6179547;23;20017;-78
2024/01/07 07:29:25;;;;;;;4.45;2.80;;;0.40;99.90;;;;;;6202246;23;20013;-78
2024/01/07 07:31:50;;;;;;;6.63;2.78;;;0.40;99.90;;;;;;6204601;23;20349;-78
2024/01/07 07:34:16;;;;;;;4.65;2.50;;;0.40;99.90;;;;;;6204628;23;20016;-78
2024/01/07 07:36:43;;;;;;;3.53;2.55;;;0.40;99.90;;;;;;6202110;23;20089;-79
2024/01/07 07:39:09;;;;;;;6.47;2.78;;;0.40;99.90;;;;;;6204514;23;20074;-79
2024/01/07 07:41:34;;;;;;;7.32;2.70;;;0.40;99.90;;;;;;6201937;23;20466;-78
2024/01/07 07:44:00;;;;;;;5.15;2.70;;;0.40;99.90;;;;;;6201751;23;20104;-78
2024/01/07 07:46:26;;;;;;;3.67;2.53;;;0.40;99.90;;;;;;6178373;23;20025;-78
2024/01/07 07:48:51;;;;;;;4.57;2.70;;;0.50;99.90;;;;;;6201816;23;20027;-78
2024/01/07 07:51:17;;;;;;;3.63;2.67;;;0.50;99.90;;;;;;6206241;23;20013;-78
2024/01/07 07:53:42;;;;;;;5.07;2.30;;;0.40;99.90;;;;;;6181469;23;20016;-78
2024/01/07 07:56:08;;;;;;;4.60;2.42;;;0.40;99.90;;;;;;6206100;23;20032;-78
2024/01/07 07:58:34;;;;;;;4.97;2.60;;;0.40;99.90;;;;;;6207578;23;20020;-78
2024/01/07 08:00:59;;;;;;;5.50;2.70;;;0.40;99.90;;;;;;6181201;23;20020;-78
2024/01/07 08:03:25;;;;;;;5.72;2.65;;;0.40;99.90;;;;;;6179905;23;20052;-78
2024/01/07 08:05:51;;;;;;;4.22;2.50;;;0.40;99.90;;;;;;6205814;23;20044;-79
2024/01/07 08:08:19;;;;;;;3.42;2.55;;;0.40;99.90;;;;;;6178311;23;20115;-79
2024/01/07 08:10:45;;;;;;;3.63;2.25;;;0.40;99.90;;;;;;6204252;23;20069;-78
2024/01/07 08:13:10;;;;;;;6.05;2.70;;;0.40;99.90;;;;;;6205811;23;20028;-78
2024/01/07 08:15:37;;;;;;;3.78;2.35;;;0.30;99.90;;;;;;6204534;23;20020;-79
2024/01/07 08:18:04;;;;;;;4.63;2.30;;;0.30;99.90;;;;;;6208824;23;20095;-79
2024/01/07 08:20:29;;;;;;;5.47;2.47;;;0.30;99.90;;;;;;6208334;23;20026;-79
2024/01/07 08:22:55;;;;;;;3.78;2.20;;;0.30;99.90;;;;;;6236469;22;20091;-79
2024/01/07 08:25:20;;;;;;;3.28;2.30;;;0.30;99.90;;;;;;6211865;22;20405;-79
2024/01/07 08:27:47;;;;;;;3.30;2.15;;;0.20;99.90;;;;;;6213574;22;20042;-79
2024/01/07 08:30:13;;;;;;;3.97;2.15;;;0.20;99.90;;;;;;6193883;23;20027;-80
2024/01/07 08:32:39;;;;;;;5.00;2.42;;;0.10;99.90;;;;;;6221292;22;20016;-80
2024/01/07 08:35:05;;;;;;;3.97;2.40;;;0.10;99.90;;;;;;6245575;23;20024;-80
2024/01/07 08:37:31;;;;;;;4.97;2.08;;;0.10;99.90;;;;;;6217855;23;20020;-82
2024/01/07 08:39:57;;;;;;;3.35;2.25;;;0.10;99.90;;;;;;6222178;22;20020;-82
2024/01/07 08:42:23;;;;;;;2.40;2.10;;;0.00;99.90;;;;;;6249964;23;20027;-84
2024/01/07 08:44:49;;;;;;;2.65;2.00;;;0.00;99.90;;;;;;6222976;22;20076;-82
2024/01/07 08:47:15;;;;;;;3.78;2.42;;;0.00;99.90;;;;;;6224182;23;20264;-84
2024/01/07 08:49:40;;;;;;;3.40;2.28;;;0.00;99.90;;;;;;6223072;22;20028;-85
2024/01/07 08:52:06;;;;;;;3.67;2.25;;;-0.10;99.90;;;;;;6223638;22;20340;-81
2024/01/07 08:54:33;;;;;;;3.58;2.10;;;-0.10;99.90;;;;;;6213498;22;20027;-81
2024/01/07 08:57:02;;;;;;;3.72;2.00;;;-0.10;99.90;;;;;;6190819;22;20088;-81
2024/01/07 08:59:27;;;;;;;3.15;2.45;;;0.00;99.90;;;;;;6188471;23;20020;-81
2024/01/07 09:01:53;;;;;;;6.22;2.20;;;-0.10;99.90;;;;;;6243810;22;20828;-82
2024/01/07 09:04:28;;;;;;;4.57;2.60;;;-0.10;99.90;;;;;;6188931;22;20043;-84
2024/01/07 09:07:20;;;;;;;4.45;2.40;;;-0.10;99.90;;;;;;6162307;22;20025;-82
2024/01/07 09:10:26;;;;;;;;;;;;;;;;;;;;;
2024/01/07 09:17:28;;;;;;;;;;;;;;;;;;;;;
2024/01/07 09:20:20;;;;;;;3.40;2.10;;;0.00;99.90;;;;;;6210352;23;20021;-83
2024/01/07 09:22:51;;;;;;;6.03;2.42;;;0.00;99.90;;;;;;6210157;23;20054;-84
2024/01/07 09:25:32;;;;;;;;;;;;;;;;;;;;;
2024/01/07 09:28:54;;;;;;;2.53;2.28;;;0.00;99.90;;;;;;6212308;23;20661;-84
2024/01/07 09:32:10;;;;;;;3.00;2.20;;;0.00;99.90;;;;;;6153233;23;20060;-82
2024/01/07 09:35:14;;;;;;;2.65;1.90;;;0.10;99.90;;;;;;6096453;23;20067;-82
2024/01/07 09:40:44;;;;;;;4.40;2.00;;;0.20;99.90;;;;;;6101247;23;20021;-80
2024/01/07 09:43:10;;;;;;;4.72;2.13;;;0.20;99.90;;;;;;6194232;23;20016;-81
2024/01/07 09:45:48;;;;;;;12.82;2.80;;;0.20;99.90;;;;;;6211589;23;20021;-80
2024/01/07 09:48:14;;;;;;;7.57;2.17;;;0.30;99.90;;;;;;6211712;23;20536;-80
2024/01/07 09:50:41;;;;;;;3.05;1.90;;;0.30;99.90;;;;;;6213382;23;20027;-79
2024/01/07 09:53:10;;;;;;;3.90;1.83;;;0.40;99.90;;;;;;6210901;23;20047;-80
2024/01/07 09:55:59;;;;;;;4.40;1.73;;;0.40;99.90;;;;;;6204570;23;20091;-81
2024/01/07 09:58:36;;;;;;;5.03;1.88;;;0.50;99.90;;;;;;6177483;23;20032;-79
2024/01/07 10:01:04;;;;;;;3.65;2.22;;;0.50;99.90;;;;;;6204692;23;20058;-79
2024/01/07 10:03:33;;;;;;;2.95;2.00;;;0.50;99.90;;;;;;6205679;23;20028;-78
2024/01/07 10:05:59;;;;;;;2.95;1.80;;;0.60;99.90;;;;;;6204921;23;20017;-79
2024/01/07 10:08:24;;;;;;;6.22;4.05;;;0.60;99.90;;;;;;6203635;23;20009;-77
2024/01/07 10:10:50;;;;;;;7.53;6.82;;;0.70;99.90;;;;;;6207330;23;20013;-78
2024/01/07 10:13:16;;;;;;;3.55;2.25;;;0.70;99.90;;;;;;6204485;23;20017;-77
2024/01/07 10:15:42;;;;;;;5.70;2.72;;;0.80;99.90;;;;;;6203650;23;20031;-76
2024/01/07 10:18:07;;;;;;;4.38;2.78;;;0.80;99.90;;;;;;6205540;23;20024;-76
2024/01/07 10:20:34;;;;;;;4.13;2.20;;;0.80;99.90;;;;;;6204612;23;20020;-73
2024/01/07 10:23:02;;;;;;;6.10;2.70;;;0.80;99.90;;;;;;6203150;23;20349;-73
2024/01/07 10:25:30;;;;;;;5.40;3.10;;;0.90;99.90;;;;;;6200358;23;20619;-73
2024/01/07 10:28:02;;;;;;;4.53;2.95;;;0.90;99.90;;;;;;6202178;23;20024;-73
2024/01/07 10:30:31;;;;;;;3.63;2.47;;;0.90;99.90;;;;;;6205226;23;20017;-73
2024/01/07 10:32:59;;;;;;;2.75;1.55;;;1.00;99.90;;;;;;6201115;23;20027;-74
2024/01/07 10:35:37;;;;;;;2.15;1.50;;;1.00;99.90;;;;;;6202160;23;20122;-75
2024/01/07 10:38:03;;;;;;;4.15;1.70;;;1.10;99.90;;;;;;6202268;23;20021;-75
2024/01/07 10:40:31;;;;;;;1.92;1.35;;;1.20;99.90;;;;;;6200569;23;20377;-75
2024/01/07 10:42:58;;;;;;;2.67;1.55;;;1.20;99.90;;;;;;6202189;23;20101;-76
2024/01/07 10:45:23;;;;;;;3.60;1.75;;;1.20;99.90;;;;;;6199798;23;20021;-75
2024/01/07 10:54:51;;;;;;;3.05;1.50;;;1.30;99.90;;;;;;6171497;22;20028;-75
2024/01/07 10:58:44;;;;;;;2.45;1.60;;;1.30;99.90;;;;;;6203647;22;20032;-74
2024/01/07 11:02:03;;;;;;;3.63;1.73;;;1.30;99.90;;;;;;6201962;23;20023;-73
2024/01/07 11:06:21;;;;;;;2.67;1.60;;;1.30;99.90;;;;;;6111463;23;20210;-73
2024/01/07 11:09:39;;;;;;;3.35;1.90;;;1.30;99.90;;;;;;6057921;23;20234;-73
2024/01/07 11:12:07;;;;;;;3.67;2.13;;;1.30;99.90;;;;;;6052326;23;20084;-73
2024/01/07 11:14:36;;;;;;;11.20;4.60;;;1.30;99.90;;;;;;6166129;23;20051;-72
2024/01/07 11:17:03;;;;;;;18.38;9.30;;;1.40;99.90;;;;;;6146804;23;20441;-72
2024/01/07 11:19:29;;;;;;;5.55;2.75;;;1.40;99.90;;;;;;6169236;23;20117;-72
2024/01/07 11:22:27;;;;;;;35.90;14.00;;;1.40;99.90;;;;;;6168213;23;20025;-74
2024/01/07 11:25:02;;;;;;;8.93;3.72;;;1.40;99.90;;;;;;6157723;23;20021;-74
2024/01/07 11:27:32;;;;;;;3.45;2.00;;;1.40;99.90;;;;;;6170477;23;20025;-74
2024/01/07 11:30:05;;;;;;;4.07;1.70;;;1.40;99.90;;;;;;6172563;23;20437;-74
2024/01/07 11:32:30;;;;;;;3.20;1.80;;;1.40;99.90;;;;;;6169484;23;20024;-74
2024/01/07 11:34:59;;;;;;;8.05;2.42;;;1.40;99.90;;;;;;6170760;23;20028;-74
2024/01/07 11:38:01;;;;;;;4.38;2.00;;;1.40;99.90;;;;;;6180045;22;20079;-73
2024/01/07 11:41:21;;;;;;;5.47;2.22;;;1.40;99.90;;;;;;6170037;22;20660;-73
2024/01/07 11:44:51;;;;;;;6.32;2.35;;;1.50;99.90;;;;;;6168657;22;20451;-72
2024/01/07 11:47:18;;;;;;;3.30;2.08;;;1.50;99.90;;;;;;6192841;23;20025;-73
2024/01/07 11:49:47;;;;;;;3.72;1.75;;;1.40;99.90;;;;;;6201569;23;20026;-72
2024/01/07 11:52:13;;;;;;;2.17;1.45;;;1.50;99.90;;;;;;6201011;23;20104;-72
2024/01/07 11:54:39;;;;;;;5.05;2.13;;;1.60;99.90;;;;;;6201309;23;20024;-72
2024/01/07 11:57:09;;;;;;;3.60;1.88;;;1.60;99.90;;;;;;6200857;23;20020;-72
2024/01/07 11:59:36;;;;;;;2.42;1.60;;;1.70;99.90;;;;;;6200252;23;20104;-71
2024/01/07 12:02:05;;;;;;;2.47;1.83;;;1.80;99.90;;;;;;6201996;23;20024;-71
2024/01/07 12:04:32;;;;;;;5.75;1.95;;;1.90;99.90;;;;;;6193722;23;20021;-69
2024/01/07 12:06:58;;;;;;;3.92;1.85;;;2.00;99.90;;;;;;6200512;23;20044;-69
2024/01/07 12:09:27;;;;;;;2.67;1.77;;;2.00;99.90;;;;;;6201253;23;20025;-73
2024/01/07 12:11:53;;;;;;;2.95;1.70;;;2.10;99.90;;;;;;6200661;23;20024;-73
2024/01/07 12:14:20;;;;;;;2.90;1.90;;;2.20;99.90;;;;;;6196188;23;20020;-73
2024/01/07 12:16:46;;;;;;;3.25;1.95;;;2.30;99.90;;;;;;6198866;23;20021;-70
2024/01/07 12:19:12;;;;;;;3.60;1.90;;;2.30;99.90;;;;;;6199710;23;20534;-70
2024/01/07 12:21:39;;;;;;;3.17;1.92;;;2.40;99.90;;;;;;6197465;23;20465;-72
2024/01/07 12:24:06;;;;;;;3.67;2.13;;;2.60;99.90;;;;;;6223511;23;20137;-72
2024/01/07 12:26:33;;;;;;;3.28;2.00;;;2.80;99.90;;;;;;6201461;23;20032;-72
2024/01/07 12:29:03;;;;;;;6.15;2.40;;;2.90;99.90;;;;;;6199182;23;20073;-72
2024/01/07 12:31:33;;;;;;;3.67;2.05;;;3.00;99.90;;;;;;6201605;23;20020;-71
2024/01/07 12:33:59;;;;;;;3.88;2.10;;;3.20;99.90;;;;;;6198141;23;20020;-71
2024/01/07 12:36:25;;;;;;;3.05;2.05;;;3.50;99.90;;;;;;6199515;23;20070;-72
2024/01/07 12:38:55;;;;;;;5.55;2.22;;;3.70;99.90;;;;;;6201080;23;20021;-72
2024/01/07 12:41:22;;;;;;;3.60;2.25;;;3.90;99.90;;;;;;6202154;23;20024;-71
2024/01/07 12:43:49;;;;;;;5.53;2.13;;;4.10;99.90;;;;;;6197175;23;20023;-71
2024/01/07 12:46:15;;;;;;;4.78;2.22;;;4.10;99.90;;;;;;6199742;23;20017;-71
2024/01/07 12:48:41;;;;;;;4.55;2.20;;;4.10;99.90;;;;;;6202741;23;20783;-72
2024/01/07 12:51:06;;;;;;;6.65;2.80;;;4.10;99.90;;;;;;6200005;23;20020;-71
2024/01/07 12:53:32;;;;;;;5.13;2.75;;;3.90;99.90;;;;;;6199053;23;20786;-72
2024/01/07 12:55:58;;;;;;;4.35;2.80;;;3.90;99.90;;;;;;6198902;23;20016;-72
2024/01/07 12:58:23;;;;;;;4.18;2.85;;;3.90;99.90;;;;;;6203173;23;20530;-72
2024/01/07 13:00:49;;;;;;;5.18;2.95;;;3.90;99.90;;;;;;6199455;23;20021;-72
2024/01/07 13:03:18;;;;;;;3.50;3.00;;;3.80;99.90;;;;;;6198507;23;20078;-72
2024/01/07 13:05:45;;;;;;;4.53;3.00;;;3.60;99.90;;;;;;6200873;23;20021;-72
2024/01/07 13:08:14;;;;;;;5.07;3.22;;;3.30;99.90;;;;;;6199132;23;20071;-72
2024/01/07 13:10:40;;;;;;;4.40;3.28;;;3.10;99.90;;;;;;6202520;23;20019;-72
2024/01/07 13:13:07;;;;;;;4.43;2.95;;;3.00;99.90;;;;;;6200394;23;20025;-72
2024/01/07 13:15:32;;;;;;;5.55;3.33;;;3.00;99.90;;;;;;6203510;23;20024;-72
2024/01/07 13:17:58;;;;;;;5.68;3.08;;;3.00;99.90;;;;;;6203842;23;20023;-72
2024/01/07 13:20:24;;;;;;;3.22;2.88;;;3.20;99.90;;;;;;6199641;23;20077;-72
2024/01/07 13:22:50;;;;;;;4.30;3.13;;;3.40;99.90;;;;;;6199832;23;20031;-72
2024/01/07 13:25:16;;;;;;;6.82;3.40;;;3.70;99.90;;;;;;6200542;23;20069;-71
2024/01/07 13:27:42;;;;;;;5.00;3.28;;;4.40;99.90;;;;;;6202482;23;20028;-72
2024/01/07 13:30:09;;;;;;;4.85;3.30;;;4.90;99.90;;;;;;6198329;23;20414;-72
2024/01/07 13:32:36;;;;;;;4.78;3.28;;;5.50;99.90;;;;;;6173446;23;20021;-72
2024/01/07 13:35:10;;;;;;;5.53;3.03;;;5.90;99.90;;;;;;6201965;23;20012;-72
2024/01/07 13:37:36;;;;;;;4.95;3.45;;;5.80;99.90;;;;;;6202023;23;20100;-72
2024/01/07 13:40:03;;;;;;;4.45;3.20;;;5.50;99.90;;;;;;6201740;23;20521;-72
2024/01/07 13:42:29;;;;;;;6.35;3.10;;;5.70;99.90;;;;;;6199154;23;20027;-72
2024/01/07 13:44:55;;;;;;;6.00;2.85;;;5.90;99.90;;;;;;6199228;23;20021;-72
2024/01/07 13:47:21;;;;;;;4.72;3.38;;;5.90;99.90;;;;;;6197405;23;20024;-72
2024/01/07 13:49:47;;;;;;;4.95;3.20;;;5.50;99.90;;;;;;6200549;23;20023;-72
2024/01/07 13:52:13;;;;;;;7.28;3.28;;;5.00;99.90;;;;;;6199235;23;20029;-72
2024/01/07 13:54:38;;;;;;;5.15;3.63;;;4.70;99.90;;;;;;6198532;23;20035;-72
2024/01/07 13:57:04;;;;;;;5.72;3.53;;;4.60;99.90;;;;;;6198276;23;20051;-72
2024/01/07 13:59:30;;;;;;;4.80;3.55;;;4.50;99.90;;;;;;6200265;23;20024;-72
2024/01/07 14:01:57;;;;;;;7.55;4.13;;;4.40;99.90;;;;;;6200019;23;20395;-72
2024/01/07 14:04:24;;;;;;;5.65;3.75;;;4.20;99.90;;;;;;6200434;23;20024;-72
2024/01/07 14:06:59;;;;;;;9.65;4.05;;;4.00;99.90;;;;;;6197270;23;20021;-73
2024/01/07 14:09:25;;;;;;;5.95;3.65;;;3.60;99.90;;;;;;6198644;23;20395;-72
2024/01/07 14:11:51;;;;;;;6.93;4.32;;;3.30;99.90;;;;;;6199746;23;20024;-72
2024/01/07 14:14:19;;;;;;;6.65;4.03;;;3.00;99.90;;;;;;6201402;23;20061;-72
2024/01/07 14:16:45;;;;;;;5.63;3.72;;;2.80;99.90;;;;;;6199707;23;20028;-72
2024/01/07 14:19:11;;;;;;;7.57;4.40;;;2.60;99.90;;;;;;6202152;23;20116;-72
2024/01/07 14:21:37;;;;;;;7.80;3.95;;;2.40;99.90;;;;;;6198222;23;20024;-72
2024/01/07 14:24:03;;;;;;;10.40;4.22;;;2.30;99.90;;;;;;6199808;23;20032;-72
2024/01/07 14:26:28;;;;;;;7.53;4.57;;;2.20;99.90;;;;;;6201040;23;20027;-72
2024/01/07 14:28:54;;;;;;;6.72;4.10;;;2.10;99.90;;;;;;6198626;23;20029;-73
2024/01/07 14:31:20;;;;;;;7.35;4.32;;;2.00;99.90;;;;;;6199832;23;20020;-72
2024/01/07 14:33:46;;;;;;;6.35;4.20;;;1.90;99.90;;;;;;6197369;23;20020;-72
2024/01/07 14:36:16;;;;;;;6.80;3.85;;;1.80;99.90;;;;;;6198886;23;20345;-72
2024/01/07 14:38:47;;;;;;;7.22;4.60;;;1.70;99.90;;;;;;6200053;23;20054;-72
2024/01/07 14:41:13;;;;;;;7.90;4.75;;;1.60;99.90;;;;;;6199006;23;20020;-72
2024/01/07 14:43:40;;;;;;;8.10;4.68;;;1.50;99.90;;;;;;6199238;23;20099;-72
2024/01/07 14:46:09;;;;;;;6.80;4.82;;;1.50;99.90;;;;;;6201632;23;20012;-72
2024/01/07 14:48:35;;;;;;;8.73;4.65;;;1.40;99.90;;;;;;6199085;23;20021;-72
2024/01/07 14:51:02;;;;;;;8.95;4.82;;;1.30;99.90;;;;;;6199557;23;20019;-71
2024/01/07 14:53:31;;;;;;;8.80;4.88;;;1.20;99.90;;;;;;6196983;23;20348;-71
2024/01/07 14:55:57;;;;;;;169.57;14.23;;;1.20;99.90;;;;;;6198332;23;20017;-72
2024/01/07 14:58:24;;;;;;;44.63;6.90;;;1.20;99.90;;;;;;6200719;23;20017;-71
2024/01/07 15:00:50;;;;;;;8.35;4.88;;;1.10;99.90;;;;;;6200724;23;20031;-71
2024/01/07 15:03:17;;;;;;;8.75;4.93;;;1.10;99.90;;;;;;6197658;23;20029;-71
2024/01/07 15:05:43;;;;;;;27.05;13.90;;;1.00;99.90;;;;;;6200197;23;20012;-71
2024/01/07 15:08:12;;;;;;;9.30;6.03;;;1.10;99.90;;;;;;6198206;23;20047;-71
2024/01/07 15:10:38;;;;;;;6.80;4.95;;;1.00;99.90;;;;;;6202061;23;20100;-71
2024/01/07 15:13:04;;;;;;;11.25;5.25;;;0.90;99.90;;;;;;6203128;23;20104;-71
2024/01/07 15:15:30;;;;;;;8.70;5.00;;;0.90;99.90;;;;;;6203331;23;20025;-71
2024/01/07 15:17:57;;;;;;;7.65;4.80;;;0.90;99.90;;;;;;6201942;23;20020;-71
2024/01/07 15:20:23;;;;;;;7.55;4.95;;;0.90;99.90;;;;;;6203388;23;20031;-71
2024/01/07 15:22:51;;;;;;;6.95;4.55;;;0.90;99.90;;;;;;6201888;23;20025;-71
2024/01/07 15:25:18;;;;;;;8.98;5.25;;;0.80;99.90;;;;;;6201148;23;20075;-71
2024/01/07 15:27:45;;;;;;;9.77;5.15;;;0.70;99.90;;;;;;6203675;23;20462;-71
2024/01/07 15:30:11;;;;;;;9.63;5.10;;;0.70;99.90;;;;;;6198383;23;20021;-71
2024/01/07 15:32:37;;;;;;;9.15;4.75;;;0.70;99.90;;;;;;6196857;23;20116;-71
2024/01/07 15:35:05;;;;;;;9.77;5.18;;;0.60;99.90;;;;;;6200264;23;20036;-71
2024/01/07 15:37:31;;;;;;;10.60;6.15;;;0.50;99.90;;;;;;6200856;23;20013;-71
2024/01/07 15:39:57;;;;;;;11.00;6.50;;;0.40;99.90;;;;;;6201483;23;20023;-71
2024/01/07 15:42:24;;;;;;;10.60;5.80;;;0.40;99.90;;;;;;6195052;23;20024;-70
2024/01/07 15:44:50;;;;;;;10.05;7.25;;;0.30;99.90;;;;;;6198765;23;20028;-71
2024/01/07 15:47:16;;;;;;;11.90;6.47;;;0.30;99.90;;;;;;6195732;23;20024;-71
2024/01/07 15:49:42;;;;;;;9.50;5.32;;;0.30;99.90;;;;;;6198737;23;20062;-71
2024/01/07 15:52:07;;;;;;;11.77;5.75;;;0.20;99.90;;;;;;6197318;23;20020;-71
2024/01/07 15:54:33;;;;;;;10.02;5.60;;;0.20;99.90;;;;;;6198862;23;20017;-71
2024/01/07 15:56:59;;;;;;;8.15;5.15;;;0.20;99.90;;;;;;6199828;23;20031;-70
2024/01/07 15:59:25;;;;;;;9.95;5.28;;;0.10;99.90;;;;;;6199956;23;20020;-71
2024/01/07 16:01:50;;;;;;;7.65;5.35;;;0.10;99.90;;;;;;6198055;23;20028;-71
2024/01/07 16:04:17;;;;;;;10.32;6.30;;;0.00;99.90;;;;;;6222571;23;20464;-70
2024/01/07 16:06:44;;;;;;;8.70;6.35;;;0.00;99.90;;;;;;6199903;23;20020;-70
2024/01/07 16:09:12;;;;;;;8.90;5.55;;;0.00;99.90;;;;;;6200996;23;20025;-71
2024/01/07 16:11:39;;;;;;;8.45;5.32;;;0.00;99.90;;;;;;6196945;23;20389;-71
2024/01/07 16:14:05;;;;;;;8.98;5.35;;;-0.10;99.90;;;;;;6197113;23;20467;-70
2024/01/07 16:16:31;;;;;;;9.73;5.32;;;-0.10;99.90;;;;;;6200660;23;20020;-70
2024/01/07 16:18:57;;;;;;;8.38;5.20;;;-0.10;99.90;;;;;;6200795;23;20027;-70
2024/01/07 16:21:23;;;;;;;8.23;5.60;;;-0.10;99.90;;;;;;6197044;23;20029;-70
2024/01/07 16:23:49;;;;;;;9.63;5.38;;;-0.20;99.90;;;;;;6199519;23;20365;-70
2024/01/07 16:26:15;;;;;;;9.93;6.07;;;-0.20;99.90;;;;;;6199314;23;20012;-70
2024/01/07 16:28:41;;;;;;;10.98;5.20;;;-0.20;99.90;;;;;;6200975;23;20021;-70
2024/01/07 16:31:08;;;;;;;7.55;5.30;;;-0.20;99.90;;;;;;6201200;23;20142;-70
2024/01/07 16:33:35;;;;;;;9.32;5.28;;;-0.30;99.90;;;;;;6201295;23;20017;-70
2024/01/07 16:36:01;;;;;;;9.75;5.22;;;-0.30;99.90;;;;;;6224306;23;20021;-70
2024/01/07 16:38:27;;;;;;;8.93;5.32;;;-0.30;99.90;;;;;;6197277;23;20479;-70
2024/01/07 16:40:53;;;;;;;10.13;5.63;;;-0.30;99.90;;;;;;6199359;23;20100;-71